Time;durP1;ratioP1;P1;durP2;ratioP2;P2;SDS_P1;SDS_P2;PMS_P1;PMS_P2;Temp;Humidity;BMP_temperature;BMP_pressure;BME280_temperature;BME280_humidity;BME280_pressure;Samples;Min_cycle;Max_cycle;Signal;HPM_P1;HPM_P2
2021/01/05 00:00:11;;;;;;;27.23;17.75;;;;;;;1.20;100.00;101309.69;6301890;22;20104;-85
2021/01/05 00:02:36;;;;;;;28.23;17.92;;;;;;;1.22;100.00;101302.53;6303453;22;20025;-85
2021/01/05 00:05:02;;;;;;;26.70;17.48;;;;;;;1.17;100.00;101307.25;6303739;22;20094;-85
2021/01/05 00:07:27;;;;;;;29.33;19.30;;;;;;;1.22;100.00;101306.97;6303214;22;20015;-86
2021/01/05 00:09:56;;;;;;;26.55;17.10;;;;;;;1.23;100.00;101303.38;6276163;22;20065;-85
2021/01/05 00:12:22;;;;;;;28.88;18.20;;;;;;;1.22;100.00;101310.47;6327474;22;20021;-85
2021/01/05 00:14:48;;;;;;;29.08;18.15;;;;;;;1.21;100.00;101307.91;6304089;22;20019;-85
2021/01/05 00:17:16;;;;;;;29.23;19.05;;;;;;;1.22;100.00;101304.34;6303544;22;20015;-86
2021/01/05 00:19:42;;;;;;;29.55;19.30;;;;;;;1.22;100.00;101306.97;6327226;22;20021;-85
2021/01/05 00:22:08;;;;;;;28.48;18.52;;;;;;;1.20;100.00;101311.50;6302498;22;20019;-85
2021/01/05 00:24:34;;;;;;;27.35;18.25;;;;;;;1.23;100.00;101314.81;6275590;22;20030;-86
2021/01/05 00:27:00;;;;;;;28.88;18.98;;;;;;;1.24;100.00;101307.75;6303632;22;20086;-85
2021/01/05 00:29:25;;;;;;;31.33;19.48;;;;;;;1.26;100.00;101319.06;6300937;22;20035;-85
2021/01/05 00:32:02;;;;;;;31.08;19.13;;;;;;;1.21;100.00;101307.91;6301298;22;20019;-86
2021/01/05 00:34:27;;;;;;;28.60;18.77;;;;;;;1.22;100.00;101313.09;6300639;22;20337;-86
2021/01/05 00:36:52;;;;;;;26.63;16.77;;;;;;;1.22;100.00;101306.97;6301580;22;20027;-86
2021/01/05 00:39:18;;;;;;;28.38;19.23;;;;;;;1.21;100.00;101314.06;6275928;22;20019;-85
2021/01/05 00:41:43;;;;;;;28.83;19.85;;;;;;;1.25;100.00;101314.72;6274948;22;20019;-86
2021/01/05 00:44:08;;;;;;;27.10;18.33;;;;;;;1.23;100.00;101313.97;6304001;22;20019;-86
2021/01/05 00:46:34;;;;;;;28.92;19.15;;;;;;;1.27;100.00;101321.63;6327603;22;20231;-86
2021/01/05 00:48:59;;;;;;;28.02;19.02;;;;;;;1.25;100.00;101317.38;6303151;22;20443;-85
2021/01/05 00:51:24;;;;;;;26.10;17.38;;;;;;;1.22;100.00;101317.56;6275863;22;20359;-85
2021/01/05 00:53:50;;;;;;;24.67;16.35;;;;;;;1.20;100.00;101320.28;6274879;22;20027;-85
2021/01/05 00:56:15;;;;;;;27.42;17.13;;;;;;;1.19;100.00;101315.09;6302369;22;20017;-86
2021/01/05 00:58:40;;;;;;;24.45;16.08;;;;;;;1.22;100.00;101318.41;6275611;22;20030;-85
2021/01/05 01:01:06;;;;;;;24.13;15.88;;;;;;;1.21;100.00;101315.84;6302031;22;20018;-85
2021/01/05 01:03:31;;;;;;;23.98;16.33;;;;;;;1.23;100.00;101314.81;6326710;22;20021;-85
2021/01/05 01:05:57;;;;;;;22.98;15.52;;;;;;;1.27;100.00;101316.34;6303296;22;20328;-85
2021/01/05 01:08:22;;;;;;;21.92;14.95;;;;;;;1.26;100.00;101316.41;6302278;22;20031;-85
2021/01/05 01:10:48;;;;;;;23.30;16.27;;;;;;;1.23;100.00;101306.88;6303017;22;20011;-85
2021/01/05 01:13:14;;;;;;;23.63;16.10;;;;;;;1.25;100.00;101312.94;6301769;22;20027;-86
2021/01/05 01:15:39;;;;;;;22.17;15.25;;;;;;;1.25;100.00;101302.34;6301093;22;20022;-86
2021/01/05 01:18:06;;;;;;;23.67;15.32;;;;;;;1.27;100.00;101310.22;6303111;22;20102;-86
2021/01/05 01:20:33;;;;;;;22.58;14.27;;;;;;;1.23;100.00;101312.16;6300741;22;20025;-85
2021/01/05 01:22:58;;;;;;;22.65;14.32;;;;;;;1.25;100.00;101312.09;6303930;22;20091;-86
2021/01/05 01:25:23;;;;;;;22.48;15.20;;;;;;;1.26;100.00;101311.13;6303444;22;20022;-85
2021/01/05 01:27:49;;;;;;;23.90;15.20;;;;;;;1.26;100.00;101309.31;6303777;22;20110;-85
2021/01/05 01:30:15;;;;;;;21.77;13.93;;;;;;;1.27;100.00;101312.84;6304668;22;20023;-86
2021/01/05 01:32:41;;;;;;;23.45;14.70;;;;;;;1.25;100.00;101310.28;6302164;22;20102;-85
2021/01/05 01:35:08;;;;;;;22.42;15.13;;;;;;;1.28;100.00;101311.91;6329104;22;20038;-86
2021/01/05 01:37:33;;;;;;;21.17;13.98;;;;;;;1.27;100.00;101310.22;6303345;22;20031;-86
2021/01/05 01:39:59;;;;;;;22.10;14.40;;;;;;;1.25;100.00;101309.44;6303601;22;20015;-86
2021/01/05 01:42:25;;;;;;;22.70;14.43;;;;;;;1.26;100.00;101309.31;6328705;22;20022;-86
2021/01/05 01:44:51;;;;;;;24.52;15.55;;;;;;;1.29;100.00;101316.22;6328769;22;20015;-85
2021/01/05 01:47:22;;;;;;;24.17;15.00;;;;;;;1.28;100.00;101304.81;6304984;22;20011;-85
2021/01/05 01:49:52;;;;;;;25.50;15.43;;;;;;;1.23;100.00;101306.03;6304642;22;20034;-85
2021/01/05 01:52:50;;;;;;;22.52;15.63;;;;;;;1.24;100.00;101299.81;6305141;22;20011;-85
2021/01/05 01:55:48;;;;;;;24.75;15.10;;;;;;;1.22;100.00;101306.97;6307068;22;20356;-85
2021/01/05 01:58:57;;;;;;;24.47;14.80;;;;;;;1.21;100.00;101305.25;6304128;22;20019;-85
2021/01/05 02:01:42;;;;;;;23.55;15.63;;;;;;;1.15;100.00;101306.47;6309737;22;20722;-86
2021/01/05 02:04:48;;;;;;;26.17;16.05;;;;;;;1.20;100.00;101301.75;6304864;22;20500;-85
2021/01/05 02:07:36;;;;;;;28.10;17.38;;;;;;;1.22;100.00;101306.97;6306611;22;20090;-85
2021/01/05 02:10:25;;;;;;;27.65;15.95;;;;;;;1.20;100.00;101303.56;6304832;22;20390;-86
2021/01/05 02:13:35;;;;;;;24.60;15.77;;;;;;;1.18;100.00;101308.09;6303304;22;20015;-85
2021/01/05 02:16:27;;;;;;;27.27;16.65;;;;;;;1.16;100.00;101307.34;6207427;22;20026;-85
2021/01/05 02:19:01;;;;;;;29.70;17.77;;;;;;;1.19;100.00;101307.16;6286496;22;20093;-85
2021/01/05 02:21:49;;;;;;;30.50;19.08;;;;;;;1.21;100.00;101305.25;6304352;22;20530;-85
2021/01/05 02:24:38;;;;;;;29.02;18.10;;;;;;;1.23;100.00;101301.56;6306694;22;20015;-85
2021/01/05 02:27:08;;;;;;;31.83;19.85;;;;;;;1.22;100.00;101301.69;6306051;22;20074;-85
2021/01/05 02:29:56;;;;;;;32.30;19.27;;;;;;;1.20;100.00;101298.28;6329848;22;20341;-85
2021/01/05 02:32:37;;;;;;;30.38;18.52;;;;;;;1.23;100.00;101301.56;6305250;22;20045;-85
2021/01/05 02:35:17;;;;;;;30.20;19.52;;;;;;;1.21;100.00;101306.13;6306658;22;20343;-84
2021/01/05 02:38:06;;;;;;;31.30;18.85;;;;;;;1.23;100.00;101303.38;6303899;22;20023;-85
2021/01/05 02:40:52;;;;;;;30.38;19.15;;;;;;;1.20;100.00;101299.13;6306617;22;20443;-85
2021/01/05 02:43:42;;;;;;;26.83;16.92;;;;;;;1.18;100.00;101305.44;6307517;22;20011;-85
2021/01/05 02:46:43;;;;;;;29.58;18.33;;;;;;;1.20;100.00;101299.13;6306546;22;20011;-85
2021/01/05 02:49:29;;;;;;;29.45;18.52;;;;;;;1.22;100.00;101299.03;6299194;22;20011;-87
2021/01/05 02:52:27;;;;;;;33.15;19.52;;;;;;;1.23;100.00;101295.44;6276199;22;20019;-87
2021/01/05 02:55:17;;;;;;;29.50;19.45;;;;;;;1.22;100.00;101293.75;6265429;22;20091;-87
2021/01/05 02:57:50;;;;;;;28.77;18.50;;;;;;;1.22;100.00;101288.47;6300167;22;20015;-86
2021/01/05 03:00:25;;;;;;;28.52;18.35;;;;;;;1.21;100.00;101287.63;6277341;22;20019;-87
2021/01/05 03:03:15;;;;;;;29.35;18.60;;;;;;;1.23;100.00;101287.53;6304750;22;20015;-87
2021/01/05 03:05:46;;;;;;;29.05;18.85;;;;;;;1.25;100.00;101283.00;6277023;22;20015;-87
2021/01/05 03:08:12;;;;;;;27.15;17.02;;;;;;;1.23;100.00;101282.22;6304990;22;20080;-87
2021/01/05 03:11:05;;;;;;;27.40;17.10;;;;;;;1.24;100.00;101281.31;6277361;22;20011;-87
2021/01/05 03:13:46;;;;;;;27.88;17.60;;;;;;;1.25;100.00;101285.63;6302235;22;20022;-87
2021/01/05 03:16:29;;;;;;;24.33;12.85;;;;;;;1.21;100.00;101295.56;6303253;22;20015;-87
2021/01/05 03:19:05;;;;;;;26.63;17.05;;;;;;;1.26;100.00;101295.25;6275394;22;20579;-88
2021/01/05 03:21:36;;;;;;;25.42;15.88;;;;;;;1.26;100.00;101292.63;6304612;22;20044;-87
2021/01/05 03:24:02;;;;;;;23.92;16.45;;;;;;;1.29;100.00;101295.06;6277442;22;20015;-87
2021/01/05 03:26:35;;;;;;;26.63;17.92;;;;;;;1.31;100.00;101285.28;6276391;22;20018;-87
2021/01/05 03:29:01;;;;;;;24.27;15.98;;;;;;;1.29;100.00;101300.38;6277353;22;20518;-88
2021/01/05 03:31:40;;;;;;;24.63;16.90;;;;;;;1.29;100.00;101295.06;6274446;22;20394;-87
2021/01/05 03:34:05;;;;;;;26.05;17.85;;;;;;;1.29;100.00;101293.28;6277232;22;20019;-87
2021/01/05 03:36:31;;;;;;;26.23;16.05;;;;;;;1.25;100.00;101296.22;6275940;22;20054;-87
2021/01/05 03:38:57;;;;;;;24.75;16.15;;;;;;;1.24;100.00;101289.25;6277461;22;20054;-87
2021/01/05 03:41:23;;;;;;;26.00;16.98;;;;;;;1.27;100.00;101291.69;6276574;22;20019;-87
2021/01/05 03:43:48;;;;;;;23.60;15.75;;;;;;;1.24;100.00;101286.59;6277326;22;20401;-87
2021/01/05 03:46:14;;;;;;;24.90;16.40;;;;;;;1.27;100.00;101294.34;6226483;22;20007;-87
2021/01/05 03:48:39;;;;;;;25.63;17.65;;;;;;;1.30;100.00;101294.16;6273644;22;20072;-87
2021/01/05 03:51:05;;;;;;;26.92;16.77;;;;;;;1.28;100.00;101296.03;6251680;22;20510;-87
2021/01/05 03:53:30;;;;;;;26.48;16.98;;;;;;;1.29;100.00;101297.72;6249422;22;20509;-87
2021/01/05 03:55:56;;;;;;;25.45;16.77;;;;;;;1.28;100.00;101296.88;6276858;22;20504;-87
2021/01/05 03:58:21;;;;;;;24.02;16.38;;;;;;;1.28;100.00;101298.66;6301857;22;20015;-87
2021/01/05 04:00:47;;;;;;;21.60;13.88;;;;;;;1.25;100.00;101285.63;6251576;22;20030;-88
2021/01/05 04:03:13;;;;;;;22.88;15.45;;;;;;;1.28;100.00;101288.09;6252221;22;20019;-87
2021/01/05 04:05:38;;;;;;;20.85;13.80;;;;;;;1.28;100.00;101296.88;6251157;22;20386;-88
2021/01/05 04:08:04;;;;;;;22.02;14.48;;;;;;;1.30;100.00;101286.22;6277080;22;20019;-87
2021/01/05 04:10:29;;;;;;;22.13;14.50;;;;;;;1.33;100.00;101291.31;6276516;22;20478;-88
2021/01/05 04:12:54;;;;;;;20.88;13.90;;;;;;;1.32;100.00;101297.53;6276969;22;20014;-87
2021/01/05 04:15:26;;;;;;;21.95;14.35;;;;;;;1.33;100.00;101296.63;6251669;22;20065;-87
2021/01/05 04:17:52;;;;;;;22.90;14.23;;;;;;;1.32;100.00;101292.25;6272894;22;20015;-88
2021/01/05 04:20:20;;;;;;;21.40;14.13;;;;;;;1.28;100.00;101291.59;6302546;22;20114;-87
2021/01/05 04:22:45;;;;;;;20.90;14.40;;;;;;;1.31;100.00;101291.41;6276318;22;20023;-87
2021/01/05 04:25:12;;;;;;;23.15;14.98;;;;;;;1.33;100.00;101296.63;6251155;22;20455;-87
2021/01/05 04:27:38;;;;;;;24.45;15.57;;;;;;;1.28;100.00;101296.88;6301139;22;20022;-87
2021/01/05 04:30:06;;;;;;;26.67;15.10;;;;;;;1.23;100.00;101298.09;6251191;22;20665;-87
2021/01/05 04:32:31;;;;;;;25.95;15.45;;;;;;;1.24;100.00;101297.16;6250251;22;20447;-87
2021/01/05 04:34:56;;;;;;;30.00;16.65;;;;;;;1.25;100.00;101290.94;6276199;22;20018;-87
2021/01/05 04:37:22;;;;;;;24.02;14.60;;;;;;;1.22;100.00;101294.59;6250722;22;20023;-87
2021/01/05 04:39:47;;;;;;;27.80;16.05;;;;;;;1.22;100.00;101291.13;6250129;22;20023;-87
2021/01/05 04:42:25;;;;;;;25.25;15.93;;;;;;;1.23;100.00;101298.09;6251806;22;20041;-87
2021/01/05 04:44:55;;;;;;;28.97;18.03;;;;;;;1.23;100.00;101296.28;6280059;22;20596;-87
2021/01/05 04:47:29;;;;;;;29.05;16.80;;;;;;;1.21;100.00;101295.56;6276432;22;20038;-88
2021/01/05 04:50:06;;;;;;;32.30;19.10;;;;;;;1.22;100.00;101299.88;6275724;22;20107;-87
2021/01/05 04:52:52;;;;;;;29.23;18.33;;;;;;;1.21;100.00;101305.25;6273828;22;20065;-87
2021/01/05 04:55:27;;;;;;;34.45;18.95;;;;;;;1.21;100.00;101299.97;6247537;22;20015;-87
2021/01/05 04:58:02;;;;;;;35.70;19.75;;;;;;;1.20;100.00;101303.56;6247200;22;20023;-87
2021/01/05 05:00:29;;;;;;;38.40;21.33;;;;;;;1.21;100.00;101297.31;6275046;22;20023;-87
2021/01/05 05:03:00;;;;;;;36.63;20.75;;;;;;;1.21;100.00;101295.56;6274960;22;20439;-87
2021/01/05 05:05:35;;;;;;;35.60;19.38;;;;;;;1.17;100.00;101303.75;6275643;22;20086;-87
2021/01/05 05:08:12;;;;;;;39.10;21.77;;;;;;;1.21;100.00;101298.19;6303121;22;20039;-87
2021/01/05 05:10:47;;;;;;;35.35;18.67;;;;;;;1.18;100.00;101298.38;6274156;22;20015;-87
2021/01/05 05:13:49;;;;;;;32.50;18.60;;;;;;;1.18;100.00;101297.50;6297667;22;20062;-88
2021/01/05 05:16:41;;;;;;;36.70;19.60;;;;;;;1.18;100.00;101301.03;6249029;22;20088;-87
2021/01/05 05:19:31;;;;;;;36.17;20.00;;;;;;;1.18;100.00;101300.16;6229896;22;20018;-87
2021/01/05 05:22:06;;;;;;;39.20;20.58;;;;;;;1.22;100.00;101304.34;6326312;22;20041;-86
2021/01/05 05:24:34;;;;;;;40.15;20.20;;;;;;;1.22;100.00;101306.97;6322463;22;20041;-88
2021/01/05 05:27:27;;;;;;;41.15;21.60;;;;;;;1.21;100.00;101306.13;6300016;22;20015;-87
2021/01/05 05:29:59;;;;;;;36.92;20.92;;;;;;;1.21;100.00;101306.13;6244864;22;20015;-88
2021/01/05 05:32:33;;;;;;;41.58;22.50;;;;;;;1.21;100.00;101306.13;6298812;22;20038;-87
2021/01/05 05:35:04;;;;;;;39.63;21.10;;;;;;;1.23;100.00;101306.03;6269444;22;20084;-87
2021/01/05 05:37:59;;;;;;;39.45;21.35;;;;;;;1.24;100.00;101307.75;6296341;22;20015;-87
2021/01/05 05:40:36;;;;;;;41.05;22.00;;;;;;;1.26;100.00;101311.13;6270653;22;20431;-87
2021/01/05 05:43:10;;;;;;;36.40;17.58;;;;;;;1.22;100.00;101315.75;6299902;22;20058;-87
2021/01/05 05:45:43;;;;;;;39.03;21.58;;;;;;;1.25;100.00;101312.09;6269997;22;20822;-87
2021/01/05 05:48:25;;;;;;;35.60;19.90;;;;;;;1.27;100.00;101318.13;6299101;22;20034;-88
2021/01/05 05:51:21;;;;;;;40.45;21.85;;;;;;;1.28;100.00;101312.75;6269072;22;20039;-87
2021/01/05 05:53:53;;;;;;;43.03;23.10;;;;;;;1.29;100.00;101317.06;6271209;22;20023;-88
2021/01/05 05:56:29;;;;;;;36.03;19.63;;;;;;;1.27;100.00;101320.78;6272030;22;20007;-87
2021/01/05 05:58:56;;;;;;;36.85;20.50;;;;;;;1.28;100.00;101323.31;6248005;22;20022;-88
2021/01/05 06:01:37;;;;;;;36.85;20.80;;;;;;;1.28;100.00;101319.81;6271420;22;20514;-87
2021/01/05 06:04:03;;;;;;;35.20;20.63;;;;;;;1.30;100.00;101332.03;6274215;22;20011;-88
2021/01/05 06:06:30;;;;;;;33.35;19.05;;;;;;;1.32;100.00;101322.22;6271680;22;20338;-87
2021/01/05 06:08:55;;;;;;;34.22;19.38;;;;;;;1.31;100.00;101323.13;6247825;22;20015;-87
2021/01/05 06:11:21;;;;;;;37.30;19.80;;;;;;;1.33;100.00;101320.41;6273132;22;20461;-87
2021/01/05 06:13:46;;;;;;;36.83;20.35;;;;;;;1.35;100.00;101329.97;6249059;22;20012;-87
2021/01/05 06:16:12;;;;;;;34.08;19.67;;;;;;;1.35;100.00;101329.97;6248603;22;20320;-87
2021/01/05 06:18:37;;;;;;;34.05;19.35;;;;;;;1.36;100.00;101325.50;6271977;22;20093;-87
2021/01/05 06:21:03;;;;;;;33.03;19.13;;;;;;;1.36;100.00;101325.50;6249486;22;20634;-87
2021/01/05 06:23:28;;;;;;;32.50;18.88;;;;;;;1.37;100.00;101326.34;6246533;22;20106;-87
2021/01/05 06:25:53;;;;;;;34.25;17.77;;;;;;;1.35;100.00;101326.44;6248653;22;20441;-87
2021/01/05 06:28:19;;;;;;;33.47;19.65;;;;;;;1.36;100.00;101325.50;6249205;22;20015;-88
2021/01/05 06:30:44;;;;;;;31.33;18.38;;;;;;;1.36;100.00;101328.16;6247630;22;20015;-87
2021/01/05 06:33:10;;;;;;;28.17;17.23;;;;;;;1.35;100.00;101335.25;6274745;22;20035;-88
2021/01/05 06:35:36;;;;;;;33.58;18.27;;;;;;;1.33;100.00;101326.53;6298509;22;20015;-88
2021/01/05 06:38:01;;;;;;;28.30;17.33;;;;;;;1.37;100.00;101324.56;6247906;22;20021;-87
2021/01/05 06:40:28;;;;;;;30.27;17.90;;;;;;;1.36;100.00;101330.81;6247035;22;20054;-87
2021/01/05 06:42:55;;;;;;;29.10;17.08;;;;;;;1.35;100.00;101329.06;6299710;22;20015;-86
2021/01/05 06:45:24;;;;;;;32.00;17.75;;;;;;;1.38;100.00;101328.06;6274925;22;20072;-87
2021/01/05 06:47:50;;;;;;;31.45;17.35;;;;;;;1.37;100.00;101327.19;6299226;22;20015;-88
2021/01/05 06:50:17;;;;;;;33.97;17.42;;;;;;;1.35;100.00;101332.59;6247546;22;20411;-86
2021/01/05 06:52:42;;;;;;;29.23;18.35;;;;;;;1.38;100.00;101323.59;6247576;22;20019;-87
2021/01/05 06:55:08;;;;;;;28.38;17.23;;;;;;;1.38;100.00;101328.91;6247401;22;20481;-88
2021/01/05 06:57:34;;;;;;;31.77;17.27;;;;;;;1.37;100.00;101327.19;6271799;22;20018;-87
2021/01/05 07:00:00;;;;;;;30.67;16.25;;;;;;;1.33;100.00;101325.69;6248246;22;20332;-87
2021/01/05 07:02:25;;;;;;;26.00;14.45;;;;;;;1.33;100.00;101326.53;6272018;22;20052;-87
2021/01/05 07:04:50;;;;;;;35.35;17.88;;;;;;;1.33;100.00;101326.53;6248012;22;20042;-87
2021/01/05 07:07:16;;;;;;;29.55;17.35;;;;;;;1.33;100.00;101336.28;6248076;22;20022;-88
2021/01/05 07:09:42;;;;;;;29.45;15.68;;;;;;;1.33;100.00;101331.00;6220315;22;20038;-87
2021/01/05 07:12:07;;;;;;;29.83;18.38;;;;;;;1.35;100.00;101339.66;6300082;22;20022;-88
2021/01/05 07:14:32;;;;;;;32.22;19.25;;;;;;;1.37;100.00;101336.94;6272549;22;20058;-88
2021/01/05 07:16:58;;;;;;;34.38;19.05;;;;;;;1.37;100.00;101335.13;6250165;22;20011;-87
2021/01/05 07:19:23;;;;;;;35.45;20.17;;;;;;;1.37;100.00;101343.06;6277034;22;20412;-87
2021/01/05 07:21:49;;;;;;;36.15;20.80;;;;;;;1.36;100.00;101341.38;6278001;22;20019;-88
2021/01/05 07:24:15;;;;;;;36.47;19.85;;;;;;;1.32;100.00;101340.72;6277499;22;20086;-88
2021/01/05 07:26:47;;;;;;;34.47;18.35;;;;;;;1.31;100.00;101343.44;6303941;22;20018;-87
2021/01/05 07:29:18;;;;;;;36.67;19.70;;;;;;;1.30;100.00;101339.09;6251430;22;20022;-87
2021/01/05 07:31:44;;;;;;;37.45;20.90;;;;;;;1.35;100.00;101339.66;6304008;22;20011;-87
2021/01/05 07:34:10;;;;;;;36.10;19.55;;;;;;;1.33;100.00;101345.06;6252062;22;20025;-88
2021/01/05 07:36:41;;;;;;;33.85;19.77;;;;;;;1.32;100.00;101346.00;6276410;22;20007;-87
2021/01/05 07:39:22;;;;;;;32.70;18.70;;;;;;;1.33;100.00;101349.50;6304322;22;20019;-87
2021/01/05 07:41:49;;;;;;;33.25;18.42;;;;;;;1.31;100.00;101344.28;6303079;22;20451;-88
2021/01/05 07:44:15;;;;;;;31.98;18.70;;;;;;;1.32;100.00;101347.78;6303957;22;20090;-88
2021/01/05 07:46:41;;;;;;;32.22;18.20;;;;;;;1.32;100.00;101345.13;6231428;22;20013;-87
2021/01/05 07:49:07;;;;;;;33.63;18.38;;;;;;;1.34;100.00;101346.75;6267937;22;20062;-88
2021/01/05 07:51:33;;;;;;;34.45;19.15;;;;;;;1.33;100.00;101345.06;6239771;22;20486;-87
2021/01/05 07:53:58;;;;;;;30.50;19.10;;;;;;;1.35;100.00;101351.13;6267578;22;20020;-87
2021/01/05 07:56:24;;;;;;;28.60;17.95;;;;;;;1.35;100.00;101350.22;6241891;22;20015;-88
2021/01/05 07:58:49;;;;;;;30.58;19.42;;;;;;;1.34;100.00;101351.19;6268150;22;20030;-87
2021/01/05 08:01:14;;;;;;;31.20;20.08;;;;;;;1.39;100.00;101350.94;6218924;22;20054;-87
2021/01/05 08:03:40;;;;;;;29.85;18.38;;;;;;;1.37;100.00;101352.81;6243537;22;20058;-87
2021/01/05 08:06:07;;;;;;;30.25;19.67;;;;;;;1.39;100.00;101353.56;6229857;22;20039;-88
2021/01/05 08:08:32;;;;;;;32.65;20.33;;;;;;;1.38;100.00;101357.97;6267542;22;20310;-88
2021/01/05 08:10:58;;;;;;;31.98;19.10;;;;;;;1.39;100.00;101356.22;6190860;22;20470;-88
2021/01/05 08:13:23;;;;;;;32.58;18.27;;;;;;;1.39;100.00;101362.34;6223758;22;20046;-88
2021/01/05 08:15:49;;;;;;;28.58;18.30;;;;;;;1.40;100.00;101356.09;6169399;23;20023;-88
2021/01/05 08:18:15;;;;;;;29.85;19.73;;;;;;;1.41;100.00;101362.25;6206159;23;20030;-87
2021/01/05 08:20:40;;;;;;;30.00;18.88;;;;;;;1.34;100.00;101359.13;6206200;22;20352;-88
2021/01/05 08:23:06;;;;;;;33.28;19.95;;;;;;;1.40;100.00;101358.75;6209221;22;20095;-88
2021/01/05 08:25:32;;;;;;;32.58;19.25;;;;;;;1.38;100.00;101362.44;6219128;22;20075;-88
2021/01/05 08:27:58;;;;;;;31.15;19.95;;;;;;;1.41;100.00;101357.84;6209613;23;20418;-88
2021/01/05 08:30:27;;;;;;;31.00;20.70;;;;;;;1.43;100.00;101361.22;6208072;22;20016;-87
2021/01/05 08:33:32;;;;;;;30.67;19.33;;;;;;;1.42;100.00;101366.63;6209822;23;20167;-87
2021/01/05 08:35:58;;;;;;;34.17;20.38;;;;;;;1.38;100.00;101371.22;6209391;23;20016;-88
2021/01/05 08:38:23;;;;;;;29.77;19.70;;;;;;;1.42;100.00;101372.75;6255051;22;20011;-86
2021/01/05 08:40:49;;;;;;;31.05;20.60;;;;;;;1.45;100.00;101374.38;6271762;22;20013;-86
2021/01/05 08:43:14;;;;;;;31.48;20.67;;;;;;;1.45;100.00;101377.00;6247484;22;20015;-87
2021/01/05 08:45:40;;;;;;;32.38;19.65;;;;;;;1.46;100.00;101368.13;6240832;22;20027;-87
2021/01/05 08:48:07;;;;;;;30.33;18.80;;;;;;;1.45;100.00;101371.72;6264994;22;20027;-87
2021/01/05 08:50:33;;;;;;;32.25;20.92;;;;;;;1.46;100.00;101370.75;6264996;22;20784;-86
2021/01/05 08:53:01;;;;;;;28.48;18.65;;;;;;;1.44;100.00;101378.81;6294298;22;20019;-86
2021/01/05 08:55:27;;;;;;;34.13;22.08;;;;;;;1.49;100.00;101378.50;6222414;22;20460;-86
2021/01/05 08:57:53;;;;;;;28.65;20.88;;;;;;;1.50;100.00;101386.38;6295139;22;20092;-87
2021/01/05 09:00:19;;;;;;;29.55;18.98;;;;;;;1.49;100.00;101383.81;6297424;22;20023;-87
2021/01/05 09:02:45;;;;;;;29.92;19.55;;;;;;;1.50;100.00;101380.25;6316637;22;20026;-86
2021/01/05 09:05:11;;;;;;;31.17;21.15;;;;;;;1.51;100.00;101374.84;6274896;22;20006;-86
2021/01/05 09:07:36;;;;;;;29.92;19.45;;;;;;;1.48;100.00;101377.66;6277537;22;20015;-86
2021/01/05 09:10:04;;;;;;;30.90;20.20;;;;;;;1.54;100.00;101381.75;6269739;22;20026;-87
2021/01/05 09:12:34;;;;;;;32.28;20.45;;;;;;;1.53;100.00;101378.25;6266205;22;20038;-87
2021/01/05 09:15:00;;;;;;;32.22;21.88;;;;;;;1.52;100.00;101379.19;6267040;22;20015;-87
2021/01/05 09:17:26;;;;;;;31.70;20.15;;;;;;;1.51;100.00;101385.41;6243225;22;20466;-86
2021/01/05 09:19:51;;;;;;;30.13;20.73;;;;;;;1.53;100.00;101386.19;6269267;22;20020;-87
2021/01/05 09:22:21;;;;;;;29.42;17.80;;;;;;;1.52;100.00;101400.34;6244349;22;20025;-86
2021/01/05 09:24:46;;;;;;;31.02;19.42;;;;;;;1.50;100.00;101381.09;6296676;22;20015;-87
2021/01/05 09:27:12;;;;;;;33.90;20.63;;;;;;;1.53;100.00;101396.78;6273077;22;20072;-86
2021/01/05 09:29:37;;;;;;;30.80;20.42;;;;;;;1.54;100.00;101393.16;6247113;22;20478;-86
2021/01/05 09:32:03;;;;;;;31.40;21.67;;;;;;;1.54;100.00;101389.69;6308448;22;20023;-87
2021/01/05 09:34:28;;;;;;;29.83;20.27;;;;;;;1.53;100.00;101396.78;6281730;22;20022;-87
2021/01/05 09:36:54;;;;;;;31.50;21.08;;;;;;;1.56;100.00;101393.94;6278807;22;20050;-86
2021/01/05 09:39:22;;;;;;;29.38;18.58;;;;;;;1.54;100.00;101387.03;6255655;22;20019;-87
2021/01/05 09:42:02;;;;;;;35.33;22.20;;;;;;;1.56;100.00;101393.94;6324244;22;20015;-87
2021/01/05 09:44:28;;;;;;;31.35;20.27;;;;;;;1.55;100.00;101394.00;6286569;22;20027;-87
2021/01/05 09:46:59;;;;;;;31.73;20.80;;;;;;;1.56;100.00;101395.75;6275348;22;20039;-87
2021/01/05 09:49:26;;;;;;;30.92;19.50;;;;;;;1.56;100.00;101401.88;6273062;22;20027;-86
2021/01/05 09:51:51;;;;;;;33.65;20.45;;;;;;;1.58;100.00;101404.41;6272731;22;20034;-87
2021/01/05 09:54:18;;;;;;;27.80;18.05;;;;;;;1.55;100.00;101396.66;6249371;22;20385;-87
2021/01/05 09:56:54;;;;;;;29.95;19.70;;;;;;;1.57;100.00;101400.06;6272341;22;20054;-87
2021/01/05 09:59:20;;;;;;;30.80;20.70;;;;;;;1.60;100.00;101401.69;6274225;22;20034;-87
2021/01/05 10:01:46;;;;;;;32.30;20.73;;;;;;;1.60;100.00;101406.97;6298102;22;20450;-86
2021/01/05 10:04:11;;;;;;;32.45;21.38;;;;;;;1.61;100.00;101406.03;6273919;22;20019;-87
2021/01/05 10:06:37;;;;;;;31.02;21.17;;;;;;;1.60;100.00;101399.03;6272121;22;20655;-87
2021/01/05 10:09:08;;;;;;;34.95;22.88;;;;;;;1.62;100.00;101399.81;6273676;22;20015;-87
2021/01/05 10:11:36;;;;;;;31.08;19.80;;;;;;;1.54;100.00;101398.47;6274562;22;20015;-87
2021/01/05 10:14:02;;;;;;;31.38;21.08;;;;;;;1.59;100.00;101398.19;6271868;22;20019;-88
2021/01/05 10:16:28;;;;;;;28.38;19.67;;;;;;;1.60;100.00;101399.03;6298702;22;20090;-87
2021/01/05 10:18:53;;;;;;;30.23;20.52;;;;;;;1.62;100.00;101399.81;6273013;22;20490;-87
2021/01/05 10:21:18;;;;;;;26.25;16.98;;;;;;;1.59;100.00;101400.84;6246871;22;20015;-86
2021/01/05 10:23:44;;;;;;;29.35;19.13;;;;;;;1.64;100.00;101409.38;6270189;22;20019;-87
2021/01/05 10:26:10;;;;;;;29.50;20.02;;;;;;;1.67;100.00;101403.00;6271375;22;20161;-86
2021/01/05 10:28:36;;;;;;;28.45;19.40;;;;;;;1.66;100.00;101401.31;6295248;22;20508;-87
2021/01/05 10:31:02;;;;;;;28.17;19.92;;;;;;;1.71;100.00;101399.25;6247313;22;20015;-87
2021/01/05 10:33:29;;;;;;;28.55;18.50;;;;;;;1.66;100.00;101396.03;6238502;22;20109;-87
2021/01/05 10:35:54;;;;;;;28.75;19.52;;;;;;;1.72;100.00;101406.25;6209500;23;20020;-87
2021/01/05 10:38:20;;;;;;;27.95;17.70;;;;;;;1.72;100.00;101401.78;6208237;23;20020;-87
2021/01/05 10:40:45;;;;;;;28.30;19.25;;;;;;;1.76;100.00;101402.47;6232866;23;20479;-86
2021/01/05 10:43:11;;;;;;;26.55;17.90;;;;;;;1.74;100.00;101401.72;6207926;23;20020;-87
2021/01/05 10:45:40;;;;;;;28.58;19.60;;;;;;;1.78;100.00;101398.81;6205584;23;20013;-88
2021/01/05 10:48:07;;;;;;;27.40;18.42;;;;;;;1.78;100.00;101397.94;6208329;23;20016;-86
2021/01/05 10:50:32;;;;;;;29.15;20.05;;;;;;;1.76;100.00;101399.84;6205550;23;20031;-87
2021/01/05 10:52:58;;;;;;;30.17;20.23;;;;;;;1.76;100.00;101405.13;6207256;23;20012;-87
2021/01/05 10:55:23;;;;;;;29.27;19.83;;;;;;;1.75;100.00;101391.03;6207842;23;20016;-87
2021/01/05 10:57:49;;;;;;;27.77;19.38;;;;;;;1.76;100.00;101397.19;6233466;23;20015;-87
2021/01/05 11:00:19;;;;;;;31.25;20.73;;;;;;;1.76;100.00;101397.19;6273132;22;20540;-88
2021/01/05 11:02:45;;;;;;;32.25;21.50;;;;;;;1.79;100.00;101397.00;6231410;22;20111;-88
2021/01/05 11:05:14;;;;;;;28.73;20.70;;;;;;;1.79;100.00;101392.56;6298489;22;20015;-87
2021/01/05 11:07:40;;;;;;;30.67;19.55;;;;;;;1.80;100.00;101388.09;6267183;22;20042;-87
2021/01/05 11:10:07;;;;;;;30.98;19.92;;;;;;;1.77;100.00;101383.00;6247605;22;20015;-87
2021/01/05 11:12:32;;;;;;;30.10;20.73;;;;;;;1.83;100.00;101379.97;6244851;22;20026;-87
2021/01/05 11:14:57;;;;;;;29.00;19.25;;;;;;;1.84;100.00;101386.13;6271301;22;20266;-88
2021/01/05 11:17:23;;;;;;;28.88;19.25;;;;;;;1.86;100.00;101378.94;6273592;22;20023;-87
2021/01/05 11:19:48;;;;;;;30.77;21.13;;;;;;;1.83;100.00;101377.34;6301172;22;20019;-88
2021/01/05 11:22:16;;;;;;;29.70;19.95;;;;;;;1.85;100.00;101371.97;6276128;22;20351;-87